createdAt,value
2019-05-14T00:00:58.597Z,58.57
2019-05-14T00:03:31.137Z,58.95
2019-05-14T00:06:03.032Z,58.71
2019-05-14T00:08:34.863Z,58.83
2019-05-14T00:11:06.928Z,58.92
2019-05-14T00:13:41.299Z,58.99
2019-05-14T00:16:13.384Z,59.15
2019-05-14T00:18:44.933Z,59.15
2019-05-14T00:21:16.485Z,60.51
2019-05-14T00:23:48.306Z,62.22
2019-05-14T00:26:21.459Z,63.10
2019-05-14T00:28:53.387Z,64.26
2019-05-14T00:31:25.024Z,63.39
2019-05-14T00:33:56.792Z,63.39
2019-05-14T00:36:28.364Z,64.60
2019-05-14T00:39:01.828Z,64.78
2019-05-14T00:41:33.235Z,64.00
2019-05-14T00:44:05.124Z,63.46
2019-05-14T00:46:36.727Z,63.82
2019-05-14T00:49:08.260Z,63.68
2019-05-14T00:51:41.304Z,63.54
2019-05-14T00:54:13.633Z,63.66
2019-05-14T00:56:45.543Z,63.50
2019-05-14T00:59:17.068Z,62.90
2019-05-14T01:01:48.865Z,62.84
2019-05-14T01:04:22.260Z,62.60
2019-05-14T01:06:55.751Z,62.47
2019-05-14T01:09:27.313Z,62.53
2019-05-14T01:11:58.840Z,62.35
2019-05-14T01:14:31.737Z,62.54
2019-05-14T01:17:03.672Z,62.98
2019-05-14T01:19:35.494Z,62.95
2019-05-14T01:22:07.010Z,62.68
2019-05-14T01:24:38.604Z,62.92
2019-05-14T01:27:12.435Z,63.27
2019-05-14T01:29:45.554Z,63.44
2019-05-14T01:32:17.079Z,63.68
2019-05-14T01:34:48.638Z,63.37
2019-05-14T01:37:21.858Z,63.21
2019-05-14T01:39:53.662Z,63.30
2019-05-14T01:42:25.199Z,63.33
2019-05-14T01:44:56.760Z,63.22
2019-05-14T01:47:28.571Z,63.03
2019-05-14T01:50:02.102Z,63.12
2019-05-14T01:52:33.300Z,63.36
2019-05-14T01:55:05.059Z,63.56
2019-05-14T01:57:36.538Z,63.10
2019-05-14T02:00:11.326Z,62.96
2019-05-14T02:02:43.098Z,63.07
2019-05-14T02:05:15.378Z,63.02
2019-05-14T02:07:46.999Z,63.10
2019-05-14T02:10:19.005Z,63.82
2019-05-14T02:12:51.530Z,63.42
2019-05-14T02:15:36.240Z,63.30
2019-05-14T02:17:56.708Z,63.36
2019-05-14T02:20:29.428Z,62.84
2019-05-14T02:23:01.664Z,62.74
2019-05-14T02:25:33.598Z,62.94
2019-05-14T02:28:05.114Z,63.57
2019-05-14T02:30:48.358Z,63.29
2019-05-14T02:33:10.028Z,63.03
2019-05-14T02:35:41.620Z,63.64
2019-05-14T02:38:13.355Z,63.64
2019-05-14T02:40:45.011Z,63.32
2019-05-14T02:43:19.642Z,63.17
2019-05-14T02:46:09.620Z,63.04
2019-05-14T02:48:24.277Z,63.12
2019-05-14T02:50:55.974Z,63.87
2019-05-14T02:53:30.067Z,63.65
2019-05-14T02:56:01.799Z,64.17
2019-05-14T02:58:33.438Z,63.91
2019-05-14T03:01:05.282Z,64.39
2019-05-14T03:03:40.014Z,64.74
2019-05-14T03:06:10.625Z,64.11
2019-05-14T03:08:42.367Z,63.96
2019-05-14T03:11:14.042Z,64.68
2019-05-14T03:13:49.283Z,64.76
2019-05-14T03:16:30.037Z,65.80
2019-05-14T03:18:52.255Z,65.50
2019-05-14T03:21:23.837Z,65.16
2019-05-14T03:23:55.420Z,64.73
2019-05-14T03:26:29.325Z,64.30
2019-05-14T03:29:00.375Z,64.29
2019-05-14T03:31:33.764Z,64.05
2019-05-14T03:34:05.649Z,64.24
2019-05-14T03:36:42.223Z,64.48
2019-05-14T03:39:10.737Z,64.71
2019-05-14T03:41:42.431Z,65.03
2019-05-14T03:44:14.185Z,64.72
2019-05-14T03:46:54.844Z,66.25
2019-05-14T03:49:20.039Z,66.91
2019-05-14T03:51:51.838Z,66.14
2019-05-14T03:54:29.802Z,65.88
2019-05-14T03:57:03.212Z,65.92
2019-05-14T03:59:40.082Z,66.72
2019-05-14T04:02:11.282Z,66.91
2019-05-14T04:04:43.275Z,66.98
2019-05-14T04:07:15.807Z,68.10
2019-05-14T04:09:49.446Z,68.09
2019-05-14T04:12:23.382Z,68.14
2019-05-14T04:14:59.597Z,67.52
2019-05-14T04:17:40.921Z,67.89
2019-05-14T04:20:10.531Z,68.62
2019-05-14T04:22:42.682Z,69.17
2019-05-14T04:25:15.222Z,68.43
2019-05-14T04:27:49.386Z,68.29
2019-05-14T04:30:24.315Z,67.47
2019-05-14T04:32:59.383Z,66.88
2019-05-14T04:35:31.152Z,66.31
2019-05-14T04:38:02.683Z,66.20
2019-05-14T04:40:34.477Z,65.22
2019-05-14T04:43:06.005Z,65.53
2019-05-14T04:45:39.554Z,65.39
2019-05-14T04:48:27.087Z,65.06
2019-05-14T04:50:44.430Z,65.15
2019-05-14T04:53:19.255Z,64.81
2019-05-14T04:55:49.797Z,64.35
2019-05-14T04:58:21.962Z,64.19
2019-05-14T05:00:53.619Z,64.17
2019-05-14T05:03:25.147Z,64.17
2019-05-14T05:05:58.959Z,64.20
2019-05-14T05:08:30.948Z,65.06
2019-05-14T05:11:04.622Z,63.65
2019-05-14T05:13:39.644Z,65.42
2019-05-14T05:16:11.420Z,64.54
2019-05-14T05:18:43.677Z,64.10
2019-05-14T05:21:15.422Z,65.66
2019-05-14T05:23:49.403Z,64.26
2019-05-14T05:26:22.215Z,64.15
2019-05-14T05:29:03.673Z,63.36
2019-05-14T05:31:28.893Z,64.98
2019-05-14T05:34:00.785Z,64.93
2019-05-14T05:36:32.478Z,64.73
2019-05-14T05:39:05.629Z,64.74
2019-05-14T05:41:42.798Z,63.60
2019-05-14T05:44:14.312Z,63.00
2019-05-14T05:46:45.985Z,62.72
2019-05-14T05:49:18.682Z,63.70
2019-05-14T05:51:52.585Z,63.88
2019-05-14T05:54:24.332Z,63.12
2019-05-14T05:56:58.014Z,62.84
2019-05-14T05:59:29.566Z,62.33
2019-05-14T06:02:01.494Z,62.08
2019-05-14T06:04:33.042Z,62.99
2019-05-14T06:07:04.770Z,65.05
2019-05-14T06:09:38.289Z,63.83
2019-05-14T06:12:10.279Z,62.65
2019-05-14T06:14:41.784Z,61.91
2019-05-14T06:17:13.690Z,61.29
2019-05-14T06:19:45.133Z,60.48
2019-05-14T06:22:18.941Z,60.18
2019-05-14T06:24:49.840Z,62.35
2019-05-14T06:27:21.367Z,62.57
2019-05-14T06:29:54.449Z,62.91
2019-05-14T06:32:28.835Z,66.55
2019-05-14T06:34:59.589Z,66.09
2019-05-14T06:37:31.096Z,67.96
2019-05-14T06:40:02.644Z,65.96
2019-05-14T06:42:35.257Z,66.10
2019-05-14T06:45:08.975Z,65.31
2019-05-14T06:47:40.449Z,62.65
2019-05-14T06:50:11.977Z,61.66
2019-05-14T06:52:43.633Z,60.78
2019-05-14T06:55:17.886Z,59.53
2019-05-14T06:57:49.036Z,58.84
2019-05-14T07:00:21.117Z,61.72
2019-05-14T07:02:52.771Z,59.39
2019-05-14T07:05:24.508Z,61.61
2019-05-14T07:07:59.515Z,61.21
2019-05-14T07:10:29.599Z,58.67
2019-05-14T07:13:01.156Z,57.29
2019-05-14T07:15:32.717Z,56.69
2019-05-14T07:18:04.634Z,56.86
2019-05-14T07:20:38.931Z,58.00
2019-05-14T07:23:09.600Z,55.79
2019-05-14T07:25:41.567Z,55.14
2019-05-14T07:28:13.985Z,54.39
2019-05-14T07:30:48.297Z,54.66
2019-05-14T07:33:19.188Z,56.18
2019-05-14T07:35:50.770Z,54.14
2019-05-14T07:38:22.380Z,55.53
2019-05-14T07:40:53.872Z,56.57
2019-05-14T07:43:28.370Z,55.70
2019-05-14T07:45:58.923Z,53.00
2019-05-14T07:48:30.880Z,52.55
2019-05-14T07:51:02.402Z,52.76
2019-05-14T07:53:39.704Z,51.76
2019-05-14T07:56:09.486Z,54.01
2019-05-14T07:58:41.420Z,53.10
2019-05-14T08:01:12.872Z,54.49
2019-05-14T08:03:44.472Z,54.62
2019-05-14T08:06:19.005Z,53.08
2019-05-14T08:08:50.845Z,52.03
2019-05-14T08:11:22.389Z,52.98
2019-05-14T08:13:53.936Z,51.19
2019-05-14T08:16:25.525Z,49.34
2019-05-14T08:18:57.231Z,48.46
2019-05-14T08:21:29.170Z,47.97
2019-05-14T08:24:01.944Z,48.11
2019-05-14T08:26:33.501Z,48.69
2019-05-14T08:29:05.172Z,49.45
2019-05-14T08:31:38.336Z,47.61
2019-05-14T08:34:10.281Z,48.62
2019-05-14T08:36:41.974Z,50.92
2019-05-14T08:39:13.893Z,50.52
2019-05-14T08:41:55.814Z,50.89
2019-05-14T08:44:19.728Z,51.38
2019-05-14T08:46:51.962Z,48.40
2019-05-14T08:49:37.741Z,50.54
2019-05-14T08:51:59.379Z,50.85
2019-05-14T08:54:30.201Z,50.16
2019-05-14T08:57:01.760Z,51.28
2019-05-14T08:59:33.306Z,49.24
2019-05-14T09:02:06.598Z,48.44
2019-05-14T09:04:42.859Z,47.43
2019-05-14T09:07:11.568Z,46.18
2019-05-14T09:09:44.170Z,46.68
2019-05-14T09:12:15.733Z,47.01
2019-05-14T09:14:48.592Z,45.93
2019-05-14T09:17:20.379Z,44.41
2019-05-14T09:20:01.934Z,43.76
2019-05-14T09:22:25.501Z,43.18
2019-05-14T09:24:59.861Z,42.87
2019-05-14T09:27:30.656Z,44.74
2019-05-14T09:30:02.315Z,44.66
2019-05-14T09:32:33.995Z,44.03
2019-05-14T09:35:05.825Z,44.33
2019-05-14T09:37:39.594Z,43.80
2019-05-14T09:40:10.675Z,44.65
2019-05-14T09:42:42.515Z,44.71
2019-05-14T09:45:14.633Z,43.52
2019-05-14T09:47:50.008Z,42.93
2019-05-14T09:50:23.390Z,42.93
2019-05-14T09:52:54.942Z,42.39
2019-05-14T09:55:28.220Z,41.42
2019-05-14T09:58:00.237Z,40.84
2019-05-14T10:00:31.757Z,41.66
2019-05-14T10:03:03.693Z,39.45
2019-05-14T10:05:35.231Z,41.07
2019-05-14T10:08:08.982Z,38.35
2019-05-14T10:10:40.265Z,39.48
2019-05-14T10:13:12.021Z,39.59
2019-05-14T10:15:43.591Z,39.78
2019-05-14T10:18:15.531Z,40.88
2019-05-14T10:20:49.440Z,40.37
2019-05-14T10:23:21.971Z,38.40
2019-05-14T10:25:54.053Z,38.59
2019-05-14T10:28:28.877Z,37.36
2019-05-14T10:31:03.645Z,39.06
2019-05-14T10:33:34.589Z,39.65
2019-05-14T10:36:09.023Z,38.46
2019-05-14T10:38:39.865Z,39.51
2019-05-14T10:41:11.489Z,38.84
2019-05-14T10:43:42.946Z,38.05
2019-05-14T10:46:14.678Z,38.77
2019-05-14T10:48:46.636Z,37.90
2019-05-14T10:51:18.332Z,37.44
2019-05-14T10:53:50.022Z,37.24
2019-05-14T10:56:21.558Z,37.25
2019-05-14T10:58:53.216Z,38.50
2019-05-14T11:01:24.937Z,37.66
2019-05-14T11:03:56.492Z,37.79
2019-05-14T11:06:29.270Z,37.73
2019-05-14T11:09:01.226Z,37.83
2019-05-14T11:11:34.028Z,36.27
2019-05-14T11:14:05.577Z,36.32
2019-05-14T11:16:41.842Z,37.87
2019-05-14T11:19:12.303Z,38.44
2019-05-14T11:21:43.956Z,39.84
2019-05-14T11:24:15.690Z,41.12
2019-05-14T11:26:48.868Z,39.46
2019-05-14T11:29:22.530Z,38.57
2019-05-14T11:31:54.223Z,38.42
2019-05-14T11:34:28.545Z,39.13
2019-05-14T11:36:59.243Z,38.45
2019-05-14T11:39:30.945Z,38.45
2019-05-14T11:42:02.512Z,37.84
2019-05-14T11:44:34.216Z,38.55
2019-05-14T11:47:05.703Z,41.59
2019-05-14T11:49:37.521Z,40.95
2019-05-14T11:52:11.733Z,39.63
2019-05-14T11:54:42.479Z,39.96
2019-05-14T11:57:14.036Z,39.23
2019-05-14T11:59:46.131Z,37.39
2019-05-14T12:02:18.962Z,37.77
2019-05-14T12:04:50.658Z,37.35
2019-05-14T12:07:22.349Z,38.31
2019-05-14T12:09:54.981Z,36.36
2019-05-14T12:12:28.844Z,37.47
2019-05-14T12:15:01.854Z,37.32
2019-05-14T12:17:33.398Z,37.10
2019-05-14T12:20:06.307Z,37.01
2019-05-14T12:22:39.370Z,36.64
2019-05-14T12:25:11.502Z,36.35
2019-05-14T12:27:43.020Z,37.64
2019-05-14T12:30:15.920Z,37.20
2019-05-14T12:32:49.348Z,37.46
2019-05-14T12:35:20.676Z,37.62
2019-05-14T12:37:52.468Z,37.72
2019-05-14T12:40:23.980Z,36.45
2019-05-14T12:42:55.578Z,38.08
2019-05-14T12:45:29.876Z,38.02
2019-05-14T12:48:01.892Z,38.05
2019-05-14T12:50:33.415Z,38.17
2019-05-14T12:53:04.996Z,37.48
2019-05-14T12:55:40.031Z,40.65
2019-05-14T12:58:11.588Z,38.65
2019-05-14T13:00:43.419Z,38.83
2019-05-14T13:03:15.002Z,40.66
2019-05-14T13:05:48.904Z,40.84
2019-05-14T13:08:20.028Z,39.44
2019-05-14T13:10:51.560Z,38.00
2019-05-14T13:13:23.210Z,38.64
2019-05-14T13:15:56.392Z,38.00
2019-05-14T13:18:29.136Z,39.26
2019-05-14T13:21:01.051Z,37.65
2019-05-14T13:23:32.621Z,39.82
2019-05-14T13:26:04.406Z,40.83
2019-05-14T13:28:36.203Z,41.58
2019-05-14T13:31:08.913Z,41.48
2019-05-14T13:33:40.742Z,44.22
2019-05-14T13:36:12.944Z,42.33
2019-05-14T13:38:44.849Z,43.81
2019-05-14T13:41:16.347Z,43.44
2019-05-14T13:43:50.401Z,43.34
2019-05-14T13:46:21.567Z,42.59
2019-05-14T13:48:53.304Z,41.32
2019-05-14T13:51:29.305Z,40.22
2019-05-14T13:53:58.975Z,39.35
2019-05-14T13:56:30.786Z,42.27
2019-05-14T13:59:02.252Z,41.52
2019-05-14T14:01:33.924Z,39.24
2019-05-14T14:04:11.368Z,38.24
2019-05-14T14:06:39.443Z,40.31
2019-05-14T14:09:12.328Z,42.06
2019-05-14T14:11:44.322Z,39.73
2019-05-14T14:14:15.948Z,38.50
2019-05-14T14:16:48.992Z,39.01
2019-05-14T14:19:21.052Z,36.23
2019-05-14T14:21:52.606Z,38.19
2019-05-14T14:24:29.066Z,38.64
2019-05-14T14:27:00.619Z,38.71
2019-05-14T14:29:32.182Z,38.69
2019-05-14T14:32:04.820Z,37.24
2019-05-14T14:34:40.974Z,41.65
2019-05-14T14:37:09.693Z,39.41
2019-05-14T14:39:41.355Z,37.71
2019-05-14T14:42:12.847Z,38.15
2019-05-14T14:44:44.575Z,37.64
2019-05-14T14:47:18.880Z,40.28
2019-05-14T14:49:51.958Z,40.31
2019-05-14T14:52:22.965Z,39.73
2019-05-14T14:54:54.593Z,39.29
2019-05-14T14:57:29.856Z,38.92
2019-05-14T15:00:01.205Z,37.62
2019-05-14T15:02:32.844Z,38.82
2019-05-14T15:05:09.940Z,38.54
2019-05-14T15:07:40.773Z,38.89
2019-05-14T15:10:13.622Z,38.41
2019-05-14T15:12:45.251Z,38.14
2019-05-14T15:15:18.637Z,38.71
2019-05-14T15:17:50.300Z,38.93
2019-05-14T15:20:22.559Z,38.51
2019-05-14T15:22:54.114Z,38.02
2019-05-14T15:25:25.715Z,38.35
2019-05-14T15:27:58.401Z,37.75
2019-05-14T15:30:30.598Z,38.41
2019-05-14T15:33:02.128Z,39.10
2019-05-14T15:35:33.685Z,38.39
2019-05-14T15:38:05.266Z,38.23
2019-05-14T15:40:39.750Z,37.83
2019-05-14T15:43:10.436Z,37.98
2019-05-14T15:45:42.871Z,38.19
2019-05-14T15:48:14.430Z,38.52
2019-05-14T15:50:46.306Z,38.14
2019-05-14T15:53:19.434Z,38.36
2019-05-14T15:55:52.572Z,37.23
2019-05-14T15:58:25.455Z,36.66
2019-05-14T16:01:00.872Z,37.98
2019-05-14T16:03:31.491Z,37.77
2019-05-14T16:06:03.216Z,37.87
2019-05-14T16:08:39.813Z,37.04
2019-05-14T16:11:11.448Z,38.36
2019-05-14T16:13:43.580Z,37.31
2019-05-14T16:16:15.351Z,37.02
2019-05-14T16:18:48.047Z,39.28
2019-05-14T16:21:20.975Z,38.92
2019-05-14T16:23:55.869Z,40.11
2019-05-14T16:26:29.246Z,38.63
2019-05-14T16:29:01.344Z,38.81
2019-05-14T16:31:36.827Z,38.23
2019-05-14T16:34:09.833Z,38.01
2019-05-14T16:36:41.361Z,38.57
2019-05-14T16:39:14.505Z,38.71
2019-05-14T16:41:48.843Z,39.48
2019-05-14T16:44:19.829Z,38.70
2019-05-14T16:46:51.701Z,38.48
2019-05-14T16:49:23.313Z,38.11
2019-05-14T16:51:55.360Z,38.67
2019-05-14T16:54:29.378Z,38.06
2019-05-14T16:57:00.944Z,38.32
2019-05-14T16:59:33.546Z,39.13
2019-05-14T17:02:05.139Z,39.21
2019-05-14T17:04:38.767Z,39.09
2019-05-14T17:07:12.646Z,40.44
2019-05-14T17:09:45.324Z,39.71
2019-05-14T17:12:22.629Z,38.93
2019-05-14T17:14:53.624Z,39.14
2019-05-14T17:17:25.462Z,39.19
2019-05-14T17:19:58.756Z,38.77
2019-05-14T17:22:33.705Z,38.48
2019-05-14T17:25:04.198Z,37.88
2019-05-14T17:27:35.932Z,38.35
2019-05-14T17:30:09.063Z,39.40
2019-05-14T17:32:41.381Z,38.46
2019-05-14T17:35:14.170Z,38.00
2019-05-14T17:37:48.183Z,38.22
2019-05-14T17:40:19.509Z,38.23
2019-05-14T17:42:51.092Z,38.40
2019-05-14T17:45:23.160Z,37.75
2019-05-14T17:47:54.694Z,38.51
2019-05-14T17:50:29.038Z,38.27
2019-05-14T17:53:00.314Z,38.56
2019-05-14T17:55:44.511Z,40.99
2019-05-14T17:58:12.819Z,39.20
2019-05-14T18:00:39.599Z,39.29
2019-05-14T18:03:11.300Z,38.64
2019-05-14T18:05:43.161Z,39.88
2019-05-14T18:08:14.790Z,38.88
2019-05-14T18:10:46.463Z,40.20
2019-05-14T18:13:18.324Z,39.23
2019-05-14T18:15:50.976Z,38.02
2019-05-14T18:18:22.567Z,38.85
2019-05-14T18:20:58.102Z,38.59
2019-05-14T18:23:29.460Z,38.23
2019-05-14T18:26:08.271Z,37.78
2019-05-14T18:28:34.698Z,37.62
2019-05-14T18:31:09.511Z,37.92
2019-05-14T18:33:41.157Z,38.04
2019-05-14T18:36:12.926Z,38.97
2019-05-14T18:38:44.776Z,39.40
2019-05-14T18:41:18.873Z,39.15
2019-05-14T18:43:50.011Z,39.14
2019-05-14T18:46:22.634Z,39.15
2019-05-14T18:48:54.220Z,39.19
2019-05-14T18:51:28.711Z,39.03
2019-05-14T18:54:03.512Z,38.97
2019-05-14T18:56:35.371Z,38.21
2019-05-14T18:59:08.914Z,38.94
2019-05-14T19:01:41.233Z,38.80
2019-05-14T19:04:12.897Z,38.52
2019-05-14T19:06:44.525Z,39.13
2019-05-14T19:09:18.587Z,39.04
2019-05-14T19:11:50.314Z,40.27
2019-05-14T19:14:22.058Z,41.00
2019-05-14T19:16:53.993Z,42.19
2019-05-14T19:19:25.589Z,41.82
2019-05-14T19:21:58.339Z,42.25
2019-05-14T19:24:30.112Z,42.48
2019-05-14T19:27:03.563Z,43.51
2019-05-14T19:29:35.514Z,43.23
2019-05-14T19:32:08.263Z,44.34
2019-05-14T19:34:40.198Z,44.66
2019-05-14T19:37:12.083Z,45.91
2019-05-14T19:39:44.016Z,46.44
2019-05-14T19:42:18.151Z,46.91
2019-05-14T19:44:48.949Z,48.10
2019-05-14T19:47:20.855Z,48.86
2019-05-14T19:49:52.514Z,49.32
2019-05-14T19:52:24.136Z,49.66
2019-05-14T19:54:56.362Z,49.83
2019-05-14T19:57:29.071Z,50.24
2019-05-14T20:00:02.637Z,50.56
2019-05-14T20:02:35.872Z,50.72
2019-05-14T20:05:09.165Z,51.36
2019-05-14T20:07:41.132Z,51.40
2019-05-14T20:10:12.981Z,51.95
2019-05-14T20:12:48.176Z,52.59
2019-05-14T20:15:21.187Z,52.36
2019-05-14T20:17:53.148Z,52.61
2019-05-14T20:20:24.883Z,52.88
2019-05-14T20:22:59.011Z,52.86
2019-05-14T20:25:30.018Z,53.08
2019-05-14T20:28:01.706Z,53.54
2019-05-14T20:30:33.905Z,53.21
2019-05-14T20:33:05.706Z,53.38
2019-05-14T20:35:37.329Z,53.20
2019-05-14T20:38:09.126Z,53.75
2019-05-14T20:40:41.110Z,53.74
2019-05-14T20:43:12.790Z,53.66
2019-05-14T20:45:44.666Z,53.57
2019-05-14T20:48:18.617Z,53.45
2019-05-14T20:50:49.985Z,53.83
2019-05-14T20:53:21.747Z,53.66
2019-05-14T20:55:53.618Z,53.88
2019-05-14T20:58:25.178Z,53.81
2019-05-14T21:00:56.902Z,54.04
2019-05-14T21:03:29.069Z,54.57
2019-05-14T21:06:00.900Z,54.42
2019-05-14T21:08:32.561Z,54.55
2019-05-14T21:11:04.281Z,54.38
2019-05-14T21:13:35.940Z,54.56
2019-05-14T21:16:08.373Z,54.10
2019-05-14T21:18:42.021Z,54.47
2019-05-14T21:21:13.891Z,54.72
2019-05-14T21:23:48.966Z,54.60
2019-05-14T21:26:20.771Z,54.47
2019-05-14T21:28:52.422Z,54.74
2019-05-14T21:31:24.568Z,54.96
2019-05-14T21:33:58.460Z,55.26
2019-05-14T21:36:29.796Z,55.20
2019-05-14T21:39:01.911Z,54.99
2019-05-14T21:41:35.630Z,55.10
2019-05-14T21:44:08.571Z,55.36
2019-05-14T21:46:40.505Z,55.34
2019-05-14T21:49:12.584Z,55.56
2019-05-14T21:51:44.709Z,55.62
2019-05-14T21:54:18.868Z,55.93
2019-05-14T21:56:50.117Z,55.34
2019-05-14T21:59:21.824Z,55.52
2019-05-14T22:01:53.724Z,56.08
2019-05-14T22:04:25.723Z,55.70
2019-05-14T22:06:58.334Z,56.26
2019-05-14T22:09:30.242Z,56.03
2019-05-14T22:12:02.484Z,55.97
2019-05-14T22:14:34.618Z,56.10
2019-05-14T22:17:08.015Z,56.19
2019-05-14T22:19:39.852Z,56.44
2019-05-14T22:22:11.688Z,56.86
2019-05-14T22:24:44.179Z,56.70
2019-05-14T22:27:15.849Z,56.95
2019-05-14T22:29:47.491Z,57.44
2019-05-14T22:32:21.373Z,57.13
2019-05-14T22:34:53.335Z,56.76
2019-05-14T22:37:27.885Z,57.21
2019-05-14T22:39:59.469Z,57.15
2019-05-14T22:42:31.127Z,57.20
2019-05-14T22:45:02.825Z,57.05
2019-05-14T22:47:34.485Z,56.97
2019-05-14T22:50:09.146Z,57.07
2019-05-14T22:52:40.833Z,57.20
2019-05-14T22:55:13.233Z,57.62
2019-05-14T22:57:44.907Z,57.62
2019-05-14T23:00:20.606Z,57.36
2019-05-14T23:02:51.645Z,57.53
2019-05-14T23:05:23.313Z,57.45
2019-05-14T23:07:55.067Z,57.17
2019-05-14T23:10:26.700Z,57.33
2019-05-14T23:12:58.622Z,57.45
2019-05-14T23:15:31.327Z,57.49
2019-05-14T23:18:02.949Z,57.60
2019-05-14T23:20:34.706Z,57.41
2019-05-14T23:23:09.050Z,57.87
2019-05-14T23:25:39.841Z,57.95
2019-05-14T23:28:11.462Z,57.86
2019-05-14T23:30:43.175Z,57.62
2019-05-14T23:33:15.034Z,57.56
2019-05-14T23:35:48.258Z,57.85
2019-05-14T23:38:20.402Z,57.82
2019-05-14T23:40:52.024Z,57.58
2019-05-14T23:43:25.245Z,57.75
2019-05-14T23:45:58.383Z,57.57
2019-05-14T23:48:30.459Z,57.59
2019-05-14T23:51:02.475Z,58.06
2019-05-14T23:53:34.343Z,58.09
2019-05-14T23:56:08.499Z,58.40
2019-05-14T23:58:54.017Z,58.16
